^^
Paulen-Weather Station Historical Data
Daily Summary for January 16, 2022 Units:  Metric    English   Both
Daily Weekly Monthly Yearly Custom
  High: Low: Average:
Temperature: 9 °C 5 °C 6.4 °C
Dew Point: 6 °C 0 °C 4.2 °C
Humidity: 97% 70% 86%
Wind Speed: 52km/h 6km/h 20.1km/h
Wind Gust: 46km/h - -
Wind- - NW
Pressure: 1015.21 hPa 1001.49 hPa -
Precipitation: 0.2 mm    
Historical Graphs
 
 
Tabular Data for January 16, 2022
Time Temperature Dew Point Pressure Wind Wind Speed Wind Gust Humidity Rainfall Rate (Hourly) solar
00:04 6 °C 5 °C 1015.21 hPa WNW 13 km/h 8 km/h 96% 0 mm 0 W/m2
00:09 6 °C 5 °C 1015.04 hPa NW 13 km/h 8 km/h 96% 0.2 mm 0 W/m2
00:14 6 °C 5 °C 1015 hPa NNW 16 km/h 11 km/h 96% 0 mm 0 W/m2
00:19 6 °C 5 °C 1014.8 hPa NNW 11 km/h 11 km/h 96% 0 mm 0 W/m2
00:24 6 °C 5 °C 1014.93 hPa N 13 km/h 10 km/h 96% 0 mm 0 W/m2
00:29 6 °C 5 °C 1014.9 hPa NW 19 km/h 15 km/h 96% 0 mm 0 W/m2
00:34 6 °C 5 °C 1014.77 hPa NNW 15 km/h 11 km/h 96% 0 mm 0 W/m2
00:39 6 °C 5 °C 1014.56 hPa NW 12 km/h 13 km/h 96% 0 mm 0 W/m2
00:44 6 °C 5 °C 1014.46 hPa NNW 13 km/h 7 km/h 96% 0 mm 0 W/m2
00:49 6 °C 5 °C 1014.46 hPa NNW 20 km/h 14 km/h 96% 0 mm 0 W/m2
00:54 6 °C 5 °C 1014.36 hPa NNW 19 km/h 14 km/h 96% 0 mm 0 W/m2
00:59 6 °C 5 °C 1014.46 hPa NNW 17 km/h 12 km/h 96% 0 mm 0 W/m2
01:04 6 °C 5 °C 1014.46 hPa NNW 20 km/h 15 km/h 96% 0 mm 0 W/m2
01:09 6 °C 5 °C 1014.33 hPa NW 19 km/h 12 km/h 97% 0 mm 0 W/m2
01:14 6 °C 5 °C 1014.36 hPa NW 14 km/h 13 km/h 96% 0 mm 0 W/m2
01:19 6 °C 5 °C 1014.29 hPa NW 17 km/h 14 km/h 96% 0 mm 0 W/m2
01:24 6 °C 5 °C 1013.99 hPa NW 17 km/h 15 km/h 97% 0 mm 0 W/m2
01:29 6 °C 5 °C 1013.99 hPa NW 20 km/h 14 km/h 97% 0 mm 0 W/m2
01:34 6 °C 5 °C 1013.82 hPa NW 22 km/h 15 km/h 97% 0 mm 0 W/m2
01:39 6 °C 5 °C 1013.78 hPa NNW 21 km/h 14 km/h 97% 0 mm 0 W/m2
01:44 6 °C 6 °C 1013.61 hPa NNW 17 km/h 15 km/h 97% 0 mm 0 W/m2
01:49 6 °C 5 °C 1013.61 hPa NNW 19 km/h 11 km/h 97% 0 mm 0 W/m2
01:54 6 °C 5 °C 1013.51 hPa NNW 16 km/h 10 km/h 97% 0 mm 0 W/m2
01:59 6 °C 5 °C 1013.41 hPa NW 19 km/h 12 km/h 97% 0 mm 0 W/m2
02:04 6 °C 5 °C 1013.38 hPa NNW 21 km/h 14 km/h 97% 0 mm 0 W/m2
02:09 6 °C 5 °C 1013.31 hPa NW 18 km/h 12 km/h 97% 0 mm 0 W/m2
02:14 6 °C 6 °C 1013.28 hPa NW 21 km/h 16 km/h 97% 0 mm 0 W/m2
02:19 6 °C 5 °C 1013.21 hPa NNW 23 km/h 16 km/h 97% 0 mm 0 W/m2
02:24 6 °C 6 °C 1013.07 hPa NW 19 km/h 14 km/h 97% 0 mm 0 W/m2
02:29 6 °C 6 °C 1012.84 hPa NW 16 km/h 11 km/h 97% 0 mm 0 W/m2
02:34 6 °C 6 °C 1012.84 hPa NNW 14 km/h 11 km/h 97% 0 mm 0 W/m2
02:39 6 °C 6 °C 1012.63 hPa NNW 18 km/h 12 km/h 97% 0 mm 0 W/m2
02:44 6 °C 6 °C 1012.5 hPa NNW 23 km/h 16 km/h 97% 0 mm 0 W/m2
02:49 6 °C 6 °C 1012.5 hPa NNW 21 km/h 13 km/h 97% 0 mm 0 W/m2
02:54 6 °C 6 °C 1012.46 hPa NW 21 km/h 14 km/h 97% 0 mm 0 W/m2
02:59 6 °C 6 °C 1012.43 hPa NW 19 km/h 12 km/h 97% 0 mm 0 W/m2
03:04 6 °C 6 °C 1012.33 hPa NW 23 km/h 16 km/h 97% 0 mm 0 W/m2
03:09 6 °C 6 °C 1012.39 hPa NNW 15 km/h 10 km/h 97% 0 mm 0 W/m2
03:14 6 °C 6 °C 1012.36 hPa NW 21 km/h 11 km/h 97% 0 mm 0 W/m2
03:19 6 °C 6 °C 1012.16 hPa NW 16 km/h 8 km/h 97% 0 mm 0 W/m2
03:24 6 °C 6 °C 1011.48 hPa NW 16 km/h 10 km/h 97% 0 mm 0 W/m2
03:29 6 °C 6 °C 1011.21 hPa NW 14 km/h 11 km/h 97% 0 mm 0 W/m2
03:34 6 °C 6 °C 1011.31 hPa NNW 17 km/h 9 km/h 97% 0 mm 0 W/m2
03:39 6 °C 6 °C 1011.34 hPa NW 18 km/h 14 km/h 97% 0 mm 0 W/m2
03:44 6 °C 6 °C 1011.28 hPa NNW 21 km/h 13 km/h 96% 0 mm 0 W/m2
03:49 6 °C 6 °C 1011.48 hPa NW 19 km/h 13 km/h 96% 0 mm 0 W/m2
03:54 6 °C 6 °C 1011.38 hPa NW 19 km/h 12 km/h 96% 0 mm 0 W/m2
03:59 6 °C 6 °C 1011.41 hPa NW 20 km/h 14 km/h 96% 0 mm 0 W/m2
04:04 6 °C 6 °C 1011.45 hPa NW 18 km/h 12 km/h 96% 0 mm 0 W/m2
04:09 6 °C 6 °C 1011.38 hPa NW 15 km/h 11 km/h 96% 0 mm 0 W/m2
04:14 6 °C 6 °C 1011.34 hPa NW 22 km/h 12 km/h 96% 0 mm 0 W/m2
04:19 6 °C 6 °C 1011.34 hPa NW 22 km/h 14 km/h 96% 0 mm 0 W/m2
04:24 6 °C 6 °C 1011.31 hPa NW 17 km/h 9 km/h 96% 0 mm 0 W/m2
04:29 6 °C 6 °C 1011.28 hPa NW 21 km/h 14 km/h 96% 0 mm 0 W/m2
04:34 6 °C 6 °C 1011.07 hPa NW 18 km/h 12 km/h 96% 0 mm 0 W/m2
04:39 6 °C 6 °C 1010.9 hPa NNW 22 km/h 15 km/h 96% 0 mm 0 W/m2
04:44 6 °C 6 °C 1010.77 hPa NW 18 km/h 14 km/h 96% 0 mm 0 W/m2
04:49 6 °C 6 °C 1010.7 hPa NW 18 km/h 10 km/h 96% 0 mm 0 W/m2
04:54 6 °C 6 °C 1010.6 hPa NNW 18 km/h 15 km/h 96% 0 mm 0 W/m2
04:59 6 °C 6 °C 1010.5 hPa NW 18 km/h 12 km/h 96% 0 mm 0 W/m2
05:04 6 °C 6 °C 1010.33 hPa NW 17 km/h 10 km/h 96% 0 mm 0 W/m2
05:09 6 °C 6 °C 1010.16 hPa NW 15 km/h 10 km/h 96% 0 mm 0 W/m2
05:14 6 °C 6 °C 1010.06 hPa NNW 14 km/h 10 km/h 96% 0 mm 0 W/m2
05:19 6 °C 6 °C 1009.89 hPa WNW 16 km/h 10 km/h 96% 0 mm 0 W/m2
05:24 6 °C 6 °C 1009.85 hPa NW 13 km/h 11 km/h 96% 0 mm 0 W/m2
05:29 6 °C 6 °C 1009.79 hPa NW 13 km/h 9 km/h 96% 0 mm 0 W/m2
05:34 6 °C 6 °C 1009.72 hPa NNW 16 km/h 10 km/h 96% 0 mm 0 W/m2
05:39 6 °C 6 °C 1009.69 hPa NW 19 km/h 12 km/h 96% 0 mm 0 W/m2
05:44 6 °C 6 °C 1009.69 hPa NW 17 km/h 10 km/h 96% 0 mm 0 W/m2
05:49 6 °C 6 °C 1009.58 hPa NNW 16 km/h 10 km/h 96% 0 mm 0 W/m2
05:54 6 °C 6 °C 1009.55 hPa NW 13 km/h 11 km/h 96% 0 mm 0 W/m2
05:59 6 °C 6 °C 1009.52 hPa NW 18 km/h 13 km/h 96% 0 mm 0 W/m2
06:04 6 °C 6 °C 1009.48 hPa NNW 13 km/h 12 km/h 96% 0 mm 0 W/m2
06:09 6 °C 6 °C 1009.48 hPa NNW 16 km/h 9 km/h 96% 0 mm 0 W/m2
06:14 6 °C 6 °C 1009.38 hPa NW 16 km/h 12 km/h 96% 0 mm 0 W/m2
06:19 6 °C 6 °C 1009.25 hPa NW 12 km/h 10 km/h 96% 0 mm 0 W/m2
06:24 6 °C 6 °C 1009.11 hPa NNW 17 km/h 11 km/h 96% 0 mm 0 W/m2
06:29 6 °C 6 °C 1008.91 hPa NW 18 km/h 9 km/h 96% 0 mm 0 W/m2
06:34 6 °C 6 °C 1008.77 hPa NW 20 km/h 13 km/h 96% 0 mm 0 W/m2
06:39 6 °C 6 °C 1008.81 hPa NNW 18 km/h 16 km/h 96% 0 mm 0 W/m2
06:44 6 °C 5 °C 1008.77 hPa NW 24 km/h 19 km/h 96% 0 mm 0 W/m2
06:49 6 °C 5 °C 1008.64 hPa NW 19 km/h 13 km/h 96% 0 mm 0 W/m2
06:54 6 °C 5 °C 1008.6 hPa NW 18 km/h 11 km/h 95% 0 mm 0 W/m2
06:59 6 °C 5 °C 1008.5 hPa NW 14 km/h 10 km/h 95% 0 mm 0 W/m2
07:04 6 °C 5 °C 1008.57 hPa NW 15 km/h 13 km/h 94% 0 mm 0 W/m2
07:09 5 °C 5 °C 1008.53 hPa NW 17 km/h 13 km/h 93% 0 mm 0 W/m2
07:14 5 °C 4 °C 1008.5 hPa NW 20 km/h 15 km/h 93% 0 mm 0 W/m2
07:19 5 °C 4 °C 1008.5 hPa NNW 18 km/h 9 km/h 93% 0 mm 0 W/m2
07:24 5 °C 4 °C 1008.43 hPa NW 17 km/h 14 km/h 92% 0 mm 0 W/m2
07:29 5 °C 4 °C 1008.36 hPa NW 16 km/h 12 km/h 92% 0 mm 0 W/m2
07:34 5 °C 4 °C 1008.3 hPa NW 10 km/h 6 km/h 91% 0 mm 0 W/m2
07:39 5 °C 4 °C 1008.33 hPa NW 10 km/h 7 km/h 91% 0 mm 0 W/m2
07:44 5 °C 4 °C 1008.36 hPa NW 8 km/h 6 km/h 91% 0 mm 0 W/m2
07:49 5 °C 4 °C 1008.36 hPa NW 8 km/h 5 km/h 92% 0 mm 0 W/m2
07:54 5 °C 4 °C 1008.33 hPa NW 9 km/h 7 km/h 92% 0 mm 0 W/m2
07:59 5 °C 4 °C 1008.33 hPa NW 9 km/h 6 km/h 92% 0 mm 0 W/m2
08:04 5 °C 4 °C 1008.26 hPa NW 9 km/h 5 km/h 92% 0 mm 0 W/m2
08:09 5 °C 4 °C 1008.13 hPa NW 9 km/h 8 km/h 93% 0 mm 0 W/m2
08:14 5 °C 4 °C 1008.06 hPa NNW 7 km/h 5 km/h 93% 0 mm 0 W/m2
08:19 5 °C 4 °C 1008.16 hPa NNW 11 km/h 6 km/h 92% 0 mm 0 W/m2
08:24 5 °C 4 °C 1008.16 hPa NW 12 km/h 10 km/h 92% 0 mm 0 W/m2
08:29 5 °C 4 °C 1008.13 hPa NW 12 km/h 9 km/h 92% 0 mm 0 W/m2
08:34 5 °C 4 °C 1008.13 hPa NNW 11 km/h 9 km/h 92% 0 mm 0 W/m2
08:39 5 °C 4 °C 1008.06 hPa NW 13 km/h 8 km/h 92% 0 mm 0 W/m2
08:44 5 °C 4 °C 1008.09 hPa WNW 14 km/h 8 km/h 92% 0 mm 0 W/m2
08:49 5 °C 4 °C 1008.09 hPa NNW 12 km/h 12 km/h 92% 0 mm 0 W/m2
08:54 5 °C 4 °C 1007.99 hPa NW 18 km/h 9 km/h 92% 0 mm 0 W/m2
08:59 5 °C 4 °C 1007.82 hPa NW 15 km/h 8 km/h 92% 0 mm 0 W/m2
09:04 5 °C 4 °C 1007.99 hPa NNW 13 km/h 9 km/h 92% 0 mm 0 W/m2
09:09 5 °C 4 °C 1008.06 hPa NW 16 km/h 13 km/h 92% 0 mm 5 W/m2
09:14 5 °C 4 °C 1008.06 hPa NW 10 km/h 6 km/h 91% 0 mm 5 W/m2
09:19 5 °C 4 °C 1007.99 hPa WNW 9 km/h 8 km/h 91% 0 mm 7 W/m2
09:24 5 °C 4 °C 1007.76 hPa NW 16 km/h 11 km/h 91% 0 mm 11 W/m2
09:29 5 °C 4 °C 1007.79 hPa NW 16 km/h 10 km/h 91% 0 mm 12 W/m2
09:34 5 °C 4 °C 1007.92 hPa NNW 18 km/h 11 km/h 91% 0 mm 14 W/m2
09:39 5 °C 4 °C 1007.89 hPa NW 13 km/h 13 km/h 91% 0 mm 23 W/m2
09:44 5 °C 4 °C 1007.79 hPa WNW 16 km/h 10 km/h 91% 0 mm 30 W/m2
09:49 5 °C 4 °C 1007.82 hPa NNW 16 km/h 10 km/h 91% 0 mm 30 W/m2
09:54 5 °C 4 °C 1007.86 hPa NW 13 km/h 9 km/h 91% 0 mm 19 W/m2
09:59 5 °C 4 °C 1007.76 hPa NW 10 km/h 9 km/h 91% 0 mm 30 W/m2
10:04 5 °C 4 °C 1007.65 hPa NNW 19 km/h 13 km/h 91% 0 mm 21 W/m2
10:09 5 °C 4 °C 1007.59 hPa WNW 16 km/h 12 km/h 91% 0 mm 51 W/m2
10:14 5 °C 4 °C 1007.59 hPa NW 16 km/h 12 km/h 91% 0 mm 63 W/m2
10:19 6 °C 4 °C 1007.59 hPa NNW 16 km/h 11 km/h 92% 0 mm 76 W/m2
10:24 6 °C 4 °C 1007.42 hPa NNW 19 km/h 14 km/h 92% 0 mm 58 W/m2
10:29 6 °C 5 °C 1007.28 hPa NNW 14 km/h 9 km/h 92% 0 mm 74 W/m2
10:34 6 °C 5 °C 1007.18 hPa NNW 22 km/h 16 km/h 91% 0 mm 26 W/m2
10:39 6 °C 5 °C 1007.18 hPa NW 22 km/h 18 km/h 91% 0 mm 111 W/m2
10:44 6 °C 5 °C 1007.11 hPa NW 18 km/h 13 km/h 91% 0 mm 37 W/m2
10:49 6 °C 5 °C 1006.98 hPa NW 18 km/h 10 km/h 91% 0 mm 121 W/m2
10:54 6 °C 5 °C 1006.94 hPa NW 18 km/h 16 km/h 91% 0 mm 127 W/m2
10:59 6 °C 5 °C 1006.91 hPa NW 18 km/h 11 km/h 91% 0 mm 127 W/m2
11:04 7 °C 5 °C 1006.84 hPa NW 24 km/h 15 km/h 91% 0 mm 130 W/m2
11:09 7 °C 5 °C 1006.91 hPa NNW 20 km/h 15 km/h 91% 0 mm 137 W/m2
11:14 7 °C 5 °C 1006.87 hPa WNW 19 km/h 16 km/h 90% 0 mm 72 W/m2
11:19 7 °C 5 °C 1006.84 hPa NNW 20 km/h 12 km/h 90% 0 mm 54 W/m2
11:24 7 °C 5 °C 1006.81 hPa NNW 20 km/h 14 km/h 90% 0 mm 77 W/m2
11:29 7 °C 5 °C 1006.94 hPa NW 23 km/h 13 km/h 90% 0 mm 63 W/m2
11:34 7 °C 5 °C 1006.84 hPa NW 24 km/h 16 km/h 90% 0 mm 49 W/m2
11:39 7 °C 5 °C 1006.87 hPa NW 22 km/h 14 km/h 91% 0 mm 67 W/m2
11:44 7 °C 6 °C 1006.87 hPa NW 18 km/h 13 km/h 91% 0 mm 72 W/m2
11:49 7 °C 6 °C 1006.87 hPa NW 18 km/h 12 km/h 92% 0 mm 79 W/m2
11:54 7 °C 6 °C 1006.87 hPa NNW 14 km/h 12 km/h 92% 0 mm 95 W/m2
11:59 7 °C 6 °C 1006.74 hPa NW 18 km/h 12 km/h 92% 0 mm 105 W/m2
12:04 7 °C 6 °C 1006.57 hPa NNW 18 km/h 11 km/h 92% 0 mm 118 W/m2
12:09 7 °C 6 °C 1006.57 hPa NNW 16 km/h 7 km/h 92% 0 mm 84 W/m2
12:14 7 °C 6 °C 1006.54 hPa NW 14 km/h 11 km/h 92% 0 mm 111 W/m2
12:19 7 °C 6 °C 1006.37 hPa NW 17 km/h 11 km/h 92% 0 mm 158 W/m2
12:24 7 °C 6 °C 1006.4 hPa NW 19 km/h 11 km/h 92% 0 mm 158 W/m2
12:29 7 °C 6 °C 1006.47 hPa NNW 12 km/h 7 km/h 91% 0 mm 158 W/m2
12:34 8 °C 6 °C 1006.47 hPa NW 10 km/h 8 km/h 91% 0 mm 160 W/m2
12:39 8 °C 6 °C 1006.3 hPa NW 10 km/h 7 km/h 90% 0 mm 163 W/m2
12:44 8 °C 6 °C 1006.27 hPa NW 8 km/h 6 km/h 89% 0 mm 169 W/m2
12:49 8 °C 6 °C 1006.43 hPa NW 10 km/h 5 km/h 89% 0 mm 183 W/m2
12:54 8 °C 6 °C 1006.47 hPa WNW 10 km/h 8 km/h 88% 0 mm 200 W/m2
12:59 8 °C 6 °C 1006.5 hPa NNW 13 km/h 9 km/h 87% 0 mm 190 W/m2
13:04 8 °C 6 °C 1006.4 hPa NNW 18 km/h 14 km/h 86% 0 mm 179 W/m2
13:09 8 °C 6 °C 1006.3 hPa NW 14 km/h 8 km/h 86% 0 mm 190 W/m2
13:14 8 °C 6 °C 1006.3 hPa NW 17 km/h 12 km/h 85% 0 mm 169 W/m2
13:19 8 °C 5 °C 1006.3 hPa NW 24 km/h 17 km/h 83% 0 mm 193 W/m2
13:24 8 °C 5 °C 1006.47 hPa NW 27 km/h 19 km/h 83% 0 mm 130 W/m2
13:29 8 °C 5 °C 1006.47 hPa NW 26 km/h 17 km/h 82% 0 mm 158 W/m2
13:34 8 °C 5 °C 1006.57 hPa NNW 20 km/h 15 km/h 82% 0 mm 90 W/m2
13:39 8 °C 5 °C 1006.57 hPa NW 19 km/h 13 km/h 82% 0 mm 128 W/m2
13:44 8 °C 5 °C 1006.6 hPa NW 21 km/h 16 km/h 82% 0 mm 135 W/m2
13:49 8 °C 5 °C 1006.57 hPa NNW 17 km/h 13 km/h 82% 0 mm 125 W/m2
13:54 8 °C 5 °C 1006.64 hPa NW 18 km/h 12 km/h 82% 0 mm 148 W/m2
13:59 8 °C 5 °C 1006.77 hPa NW 18 km/h 11 km/h 81% 0 mm 148 W/m2
14:04 8 °C 5 °C 1006.74 hPa NNW 18 km/h 11 km/h 81% 0 mm 153 W/m2
14:09 8 °C 5 °C 1006.81 hPa NNW 15 km/h 9 km/h 81% 0 mm 162 W/m2
14:14 8 °C 5 °C 1006.81 hPa NNW 16 km/h 8 km/h 81% 0 mm 137 W/m2
14:19 8 °C 5 °C 1006.84 hPa NW 19 km/h 15 km/h 80% 0 mm 132 W/m2
14:24 8 °C 4 °C 1007.01 hPa NW 22 km/h 14 km/h 79% 0 mm 139 W/m2
14:29 8 °C 4 °C 1007.15 hPa NW 19 km/h 18 km/h 79% 0 mm 135 W/m2
14:34 8 °C 4 °C 1007.21 hPa NW 22 km/h 19 km/h 78% 0 mm 121 W/m2
14:39 8 °C 4 °C 1007.32 hPa NNW 17 km/h 11 km/h 78% 0 mm 113 W/m2
14:44 7 °C 4 °C 1007.59 hPa NW 14 km/h 10 km/h 78% 0 mm 77 W/m2
14:49 7 °C 4 °C 1007.65 hPa NW 18 km/h 12 km/h 78% 0 mm 84 W/m2
14:54 7 °C 4 °C 1007.86 hPa NNW 17 km/h 13 km/h 77% 0 mm 109 W/m2
14:59 7 °C 3 °C 1007.92 hPa NNW 20 km/h 18 km/h 72% 0 mm 105 W/m2
15:04 7 °C 2 °C 1007.92 hPa NNW 18 km/h 17 km/h 71% 0 mm 107 W/m2
15:09 7 °C 3 °C 1008.09 hPa NNW 9 km/h 7 km/h 73% 0 mm 107 W/m2
15:14 7 °C 3 °C 1008.2 hPa NNW 7 km/h 6 km/h 72% 0 mm 114 W/m2
15:19 7 °C 3 °C 1008.26 hPa NW 8 km/h 9 km/h 74% 0 mm 102 W/m2
15:24 7 °C 3 °C 1008.33 hPa NNW 6 km/h 5 km/h 75% 0 mm 95 W/m2
15:29 7 °C 3 °C 1008.5 hPa NW 11 km/h 14 km/h 73% 0 mm 86 W/m2
15:34 7 °C 2 °C 1008.6 hPa NNW 15 km/h 10 km/h 71% 0 mm 40 W/m2
15:39 7 °C 2 °C 1008.64 hPa NW 18 km/h 12 km/h 70% 0 mm 25 W/m2
15:44 6 °C 2 °C 1008.7 hPa NW 6 km/h 4 km/h 70% 0 mm 21 W/m2
15:49 6 °C 2 °C 1008.74 hPa NNW 7 km/h 6 km/h 71% 0 mm 18 W/m2
15:54 6 °C 1 °C 1008.74 hPa NNW 17 km/h 19 km/h 71% 0 mm 18 W/m2
15:59 6 °C 1 °C 1008.7 hPa NW 21 km/h 16 km/h 71% 0 mm 14 W/m2
16:04 6 °C 1 °C 1008.81 hPa NW 16 km/h 15 km/h 71% 0 mm 12 W/m2
16:09 6 °C 1 °C 1008.87 hPa NNW 16 km/h 12 km/h 71% 0 mm 11 W/m2
16:14 6 °C 1 °C 1009.01 hPa NW 11 km/h 7 km/h 71% 0 mm 7 W/m2
16:19 6 °C 1 °C 1008.97 hPa NNW 21 km/h 16 km/h 72% 0 mm 5 W/m2
16:24 6 °C 1 °C 1008.87 hPa NNW 13 km/h 11 km/h 72% 0 mm 0 W/m2
16:29 6 °C 1 °C 1008.91 hPa NNW 17 km/h 10 km/h 72% 0 mm 0 W/m2
16:34 6 °C 1 °C 1008.91 hPa NW 19 km/h 11 km/h 73% 0 mm 0 W/m2
16:39 5 °C 1 °C 1008.91 hPa NW 18 km/h 11 km/h 73% 0 mm 0 W/m2
16:44 5 °C 1 °C 1009.14 hPa NW 18 km/h 14 km/h 73% 0 mm 0 W/m2
16:49 5 °C 1 °C 1009.28 hPa NW 16 km/h 10 km/h 73% 0 mm 0 W/m2
16:54 5 °C 1 °C 1009.38 hPa NW 12 km/h 11 km/h 74% 0 mm 0 W/m2
16:59 5 °C 1 °C 1009.45 hPa NW 14 km/h 11 km/h 74% 0 mm 0 W/m2
17:04 5 °C 1 °C 1009.45 hPa NW 15 km/h 12 km/h 73% 0 mm 0 W/m2
17:09 5 °C 1 °C 1009.55 hPa NW 15 km/h 12 km/h 72% 0 mm 0 W/m2
17:14 5 °C 1 °C 1009.55 hPa NW 15 km/h 10 km/h 73% 0 mm 0 W/m2
17:19 5 °C 1 °C 1009.38 hPa NW 12 km/h 12 km/h 72% 0 mm 0 W/m2
17:24 5 °C 1 °C 1009.25 hPa NW 12 km/h 10 km/h 73% 0 mm 0 W/m2
17:29 5 °C 0 °C 1009.04 hPa NW 15 km/h 11 km/h 73% 0 mm 0 W/m2
17:34 5 °C 1 °C 1009.04 hPa NW 16 km/h 12 km/h 72% 0 mm 0 W/m2
17:39 5 °C 0 °C 1009.18 hPa NW 11 km/h 9 km/h 72% 0 mm 0 W/m2
17:44 5 °C 1 °C 1009.21 hPa NW 14 km/h 11 km/h 73% 0 mm 0 W/m2
17:49 5 °C 1 °C 1009.01 hPa NW 14 km/h 10 km/h 73% 0 mm 0 W/m2
17:54 5 °C 1 °C 1008.91 hPa NNW 14 km/h 9 km/h 73% 0 mm 0 W/m2
17:59 5 °C 1 °C 1008.87 hPa NNW 18 km/h 11 km/h 73% 0 mm 0 W/m2
18:04 5 °C 1 °C 1008.7 hPa NW 19 km/h 14 km/h 74% 0 mm 0 W/m2
18:09 5 °C 1 °C 1008.67 hPa NNW 17 km/h 13 km/h 74% 0 mm 0 W/m2
18:14 5 °C 1 °C 1008.43 hPa NW 20 km/h 13 km/h 74% 0 mm 0 W/m2
18:19 5 °C 1 °C 1008.23 hPa NNW 21 km/h 14 km/h 74% 0 mm 0 W/m2
18:24 5 °C 1 °C 1007.99 hPa NW 21 km/h 13 km/h 74% 0 mm 0 W/m2
18:29 5 °C 1 °C 1007.96 hPa NW 25 km/h 15 km/h 75% 0 mm 0 W/m2
18:34 6 °C 1 °C 1007.82 hPa NW 27 km/h 16 km/h 75% 0 mm 0 W/m2
18:39 5 °C 2 °C 1007.72 hPa NNW 22 km/h 15 km/h 75% 0 mm 0 W/m2
18:44 5 °C 2 °C 1007.69 hPa NNW 25 km/h 16 km/h 76% 0 mm 0 W/m2
18:49 5 °C 2 °C 1007.79 hPa NNW 24 km/h 22 km/h 75% 0 mm 0 W/m2
18:54 5 °C 2 °C 1007.79 hPa NW 17 km/h 13 km/h 76% 0 mm 0 W/m2
18:59 5 °C 2 °C 1007.48 hPa NW 21 km/h 15 km/h 76% 0 mm 0 W/m2
19:04 5 °C 2 °C 1007.42 hPa NNW 22 km/h 15 km/h 76% 0 mm 0 W/m2
19:09 5 °C 2 °C 1007.32 hPa NW 18 km/h 13 km/h 77% 0 mm 0 W/m2
19:14 5 °C 2 °C 1007.21 hPa NW 21 km/h 12 km/h 77% 0 mm 0 W/m2
19:19 5 °C 2 °C 1006.94 hPa NNW 23 km/h 16 km/h 77% 0 mm 0 W/m2
19:24 6 °C 2 °C 1006.67 hPa NW 22 km/h 18 km/h 77% 0 mm 0 W/m2
19:29 6 °C 2 °C 1006.54 hPa NW 27 km/h 23 km/h 77% 0 mm 0 W/m2
19:34 6 °C 2 °C 1006.5 hPa NNW 22 km/h 13 km/h 78% 0 mm 0 W/m2
19:39 6 °C 2 °C 1006.43 hPa NW 20 km/h 12 km/h 78% 0 mm 0 W/m2
19:44 6 °C 2 °C 1006.3 hPa NW 24 km/h 22 km/h 78% 0 mm 0 W/m2
19:49 6 °C 2 °C 1006.33 hPa NNW 24 km/h 16 km/h 78% 0 mm 0 W/m2
19:54 6 °C 3 °C 1006.27 hPa NW 23 km/h 16 km/h 78% 0 mm 0 W/m2
19:59 6 °C 3 °C 1006.23 hPa NW 20 km/h 12 km/h 79% 0 mm 0 W/m2
20:04 6 °C 3 °C 1006.16 hPa NNW 23 km/h 21 km/h 79% 0 mm 0 W/m2
20:09 6 °C 3 °C 1006.03 hPa NW 21 km/h 14 km/h 79% 0 mm 0 W/m2
20:14 6 °C 3 °C 1005.99 hPa NW 15 km/h 12 km/h 79% 0 mm 0 W/m2
20:19 6 °C 3 °C 1005.86 hPa NNW 21 km/h 13 km/h 78% 0 mm 0 W/m2
20:24 6 °C 3 °C 1005.72 hPa NNW 23 km/h 15 km/h 78% 0 mm 0 W/m2
20:29 6 °C 3 °C 1005.52 hPa NNW 23 km/h 17 km/h 77% 0 mm 0 W/m2
20:34 7 °C 3 °C 1005.38 hPa ESE 22 km/h 13 km/h 77% 0 mm 0 W/m2
20:39 7 °C 3 °C 1005.01 hPa NW 27 km/h 16 km/h 78% 0 mm 0 W/m2
20:44 7 °C 3 °C 1004.71 hPa NW 29 km/h 21 km/h 78% 0 mm 0 W/m2
20:49 7 °C 3 °C 1004.44 hPa WNW 26 km/h 19 km/h 78% 0 mm 0 W/m2
20:54 7 °C 3 °C 1004.37 hPa NNW 21 km/h 16 km/h 78% 0 mm 0 W/m2
20:59 7 °C 3 °C 1004.3 hPa NW 32 km/h 18 km/h 78% 0 mm 0 W/m2
21:04 7 °C 3 °C 1004.06 hPa NNW 23 km/h 16 km/h 78% 0 mm 0 W/m2
21:09 7 °C 4 °C 1004.1 hPa NW 29 km/h 19 km/h 78% 0 mm 0 W/m2
21:14 7 °C 4 °C 1004 hPa NNW 29 km/h 21 km/h 78% 0 mm 0 W/m2
21:19 7 °C 4 °C 1003.83 hPa NW 40 km/h 27 km/h 77% 0.2 mm 0 W/m2
21:24 8 °C 4 °C 1003.62 hPa NW 38 km/h 25 km/h 77% 0.2 mm 0 W/m2
21:29 8 °C 4 °C 1003.39 hPa NW 30 km/h 26 km/h 77% 0.2 mm 0 W/m2
21:34 8 °C 4 °C 1003.32 hPa NW 43 km/h 27 km/h 77% 0.2 mm 0 W/m2
21:39 8 °C 4 °C 1003.15 hPa NW 38 km/h 27 km/h 77% 0.2 mm 0 W/m2
21:44 8 °C 4 °C 1002.95 hPa NW 34 km/h 22 km/h 77% 0.2 mm 0 W/m2
21:49 8 °C 4 °C 1002.98 hPa NW 45 km/h 32 km/h 77% 0.2 mm 0 W/m2
21:54 8 °C 4 °C 1002.88 hPa NNW 38 km/h 30 km/h 77% 0.2 mm 0 W/m2
21:59 8 °C 5 °C 1002.78 hPa NW 38 km/h 23 km/h 77% 0.2 mm 0 W/m2
22:04 8 °C 5 °C 1002.68 hPa NW 37 km/h 27 km/h 77% 0.2 mm 0 W/m2
22:09 8 °C 5 °C 1002.61 hPa NW 43 km/h 29 km/h 76% 0.2 mm 0 W/m2
22:14 8 °C 4 °C 1002.78 hPa NNW 36 km/h 24 km/h 76% 0.2 mm 0 W/m2
22:19 8 °C 4 °C 1002.78 hPa NW 33 km/h 25 km/h 76% 0.2 mm 0 W/m2
22:24 8 °C 4 °C 1002.71 hPa NNW 31 km/h 30 km/h 76% 0 mm 0 W/m2
22:29 9 °C 5 °C 1002.61 hPa NNW 39 km/h 35 km/h 75% 0 mm 0 W/m2
22:34 9 °C 5 °C 1002.57 hPa NNW 37 km/h 26 km/h 75% 0 mm 0 W/m2
22:39 9 °C 5 °C 1002.34 hPa NNW 38 km/h 33 km/h 76% 0 mm 0 W/m2
22:44 9 °C 5 °C 1002.03 hPa NNW 43 km/h 32 km/h 76% 0 mm 0 W/m2
22:49 9 °C 5 °C 1001.83 hPa NNW 42 km/h 33 km/h 76% 0 mm 0 W/m2
22:54 9 °C 5 °C 1001.66 hPa NNW 51 km/h 40 km/h 76% 0 mm 0 W/m2
22:59 9 °C 5 °C 1001.52 hPa NNW 48 km/h 43 km/h 76% 0 mm 0 W/m2
23:04 9 °C 5 °C 1001.56 hPa NW 51 km/h 37 km/h 76% 0 mm 0 W/m2
23:09 9 °C 5 °C 1001.49 hPa NNW 51 km/h 34 km/h 76% 0 mm 0 W/m2
23:14 9 °C 5 °C 1001.59 hPa NNW 52 km/h 40 km/h 76% 0 mm 0 W/m2
23:19 9 °C 5 °C 1001.59 hPa NNW 47 km/h 35 km/h 76% 0 mm 0 W/m2
23:24 9 °C 5 °C 1001.69 hPa NNW 41 km/h 31 km/h 76% 0 mm 0 W/m2
23:29 9 °C 5 °C 1001.52 hPa NNW 39 km/h 32 km/h 76% 0 mm 0 W/m2
23:34 9 °C 4 °C 1001.66 hPa NNW 52 km/h 40 km/h 75% 0 mm 0 W/m2
23:39 9 °C 4 °C 1001.52 hPa NNW 43 km/h 37 km/h 74% 0 mm 0 W/m2
23:44 9 °C 4 °C 1001.56 hPa NNW 49 km/h 37 km/h 73% 0 mm 0 W/m2
23:49 9 °C 4 °C 1001.83 hPa NNW 51 km/h 38 km/h 72% 0 mm 0 W/m2
23:54 9 °C 4 °C 1001.96 hPa NNW 47 km/h 43 km/h 71% 0 mm 0 W/m2
23:59 9 °C 4 °C 1002.03 hPa NNW 52 km/h 46 km/h 70% 0 mm 0 W/m2
Compliments of Weather Underground - 2 mb